Time;durP1;ratioP1;P1;durP2;ratioP2;P2;SDS_P1;SDS_P2;PMS_P1;PMS_P2;Temp;Humidity;BMP_temperature;BMP_pressure;BME280_temperature;BME280_humidity;BME280_pressure;Samples;Min_cycle;Max_cycle;Signal;HPM_P1;HPM_P2
2022/09/30 00:01:35;;;;;;;14.38;3.90;;;;;;;;;;4971885;28;20043;-64
2022/09/30 00:04:01;;;;;;;24.27;4.28;;;;;;;;;;4972784;28;20031;-63
2022/09/30 00:06:29;;;;;;;11.18;3.35;;;;;;;;;;4970461;28;20073;-63
2022/09/30 00:08:56;;;;;;;10.98;3.67;;;;;;;;;;4968871;28;20378;-63
2022/09/30 00:11:25;;;;;;;16.33;3.97;;;;;;;;;;4972645;28;20034;-63
2022/09/30 00:13:52;;;;;;;11.63;3.25;;;;;;;;;;4972672;28;20033;-64
2022/09/30 00:16:21;;;;;;;17.48;3.25;;;;;;;;;;4972552;28;20042;-64
2022/09/30 00:18:47;;;;;;;13.98;3.03;;;;;;;;;;4972603;28;20445;-64
2022/09/30 00:21:14;;;;;;;8.93;2.63;;;;;;;;;;4972291;28;20038;-64
2022/09/30 00:23:41;;;;;;;9.77;2.80;;;;;;;;;;4972701;28;20034;-63
2022/09/30 00:26:11;;;;;;;7.35;2.15;;;;;;;;;;4975062;28;20386;-64
2022/09/30 00:28:38;;;;;;;11.77;2.60;;;;;;;;;;4975678;28;20046;-64
2022/09/30 00:31:08;;;;;;;7.72;2.33;;;;;;;;;;4975743;28;20080;-64
2022/09/30 00:33:35;;;;;;;8.10;2.38;;;;;;;;;;4975956;28;20482;-63
2022/09/30 00:36:01;;;;;;;9.50;2.65;;;;;;;;;;4976019;28;20041;-64
2022/09/30 00:38:28;;;;;;;11.93;3.00;;;;;;;;;;4975660;28;20054;-64
2022/09/30 00:40:55;;;;;;;6.03;2.65;;;;;;;;;;4975450;28;20027;-64
2022/09/30 00:43:39;;;;;;;5.80;2.50;;;;;;;;;;4975795;28;20520;-63
2022/09/30 00:46:16;;;;;;;5.75;2.20;;;;;;;;;;4975828;28;20390;-63
2022/09/30 00:48:42;;;;;;;8.13;2.63;;;;;;;;;;4975513;28;20042;-63
2022/09/30 00:51:09;;;;;;;5.55;2.72;;;;;;;;;;4975513;28;20031;-63
2022/09/30 00:54:06;;;;;;;8.32;2.72;;;;;;;;;;4975412;28;20031;-63
2022/09/30 00:56:49;;;;;;;6.50;2.28;;;;;;;;;;4964928;28;20049;-63
2022/09/30 00:59:19;;;;;;;6.00;2.25;;;;;;;;;;4975652;28;20026;-63
2022/09/30 01:01:45;;;;;;;9.80;3.05;;;;;;;;;;4975145;28;20522;-63
2022/09/30 01:04:14;;;;;;;4.30;2.55;;;;;;;;;;4975486;28;20114;-63
2022/09/30 01:06:41;;;;;;;7.40;3.10;;;;;;;;;;4974950;28;20026;-63
2022/09/30 01:09:08;;;;;;;6.38;2.50;;;;;;;;;;4975351;28;20027;-63
2022/09/30 01:11:33;;;;;;;5.60;2.53;;;;;;;;;;4975425;28;20026;-63
2022/09/30 01:14:05;;;;;;;7.75;2.70;;;;;;;;;;4970662;28;20039;-64
2022/09/30 01:16:45;;;;;;;8.73;3.58;;;;;;;;;;4955767;28;20114;-63
2022/09/30 01:19:43;;;;;;;8.50;2.88;;;;;;;;;;4960359;28;20035;-63
2022/09/30 01:22:15;;;;;;;7.50;3.00;;;;;;;;;;4938471;28;20555;-63
2022/09/30 01:25:12;;;;;;;10.18;3.83;;;;;;;;;;4974885;28;20046;-62
2022/09/30 01:27:54;;;;;;;7.03;3.13;;;;;;;;;;4974525;28;20034;-63
2022/09/30 01:30:48;;;;;;;10.10;3.00;;;;;;;;;;4974823;28;20097;-64
2022/09/30 01:33:27;;;;;;;5.97;2.97;;;;;;;;;;4973080;28;20031;-62
2022/09/30 01:36:47;;;;;;;8.93;3.10;;;;;;;;;;4972472;28;20057;-64
2022/09/30 01:39:33;;;;;;;15.52;3.53;;;;;;;;;;4929982;29;20487;-63
2022/09/30 01:42:36;;;;;;;11.18;3.47;;;;;;;;;;4965586;28;20050;-63
2022/09/30 01:45:08;;;;;;;6.68;3.00;;;;;;;;;;4962820;28;20047;-63
2022/09/30 01:47:49;;;;;;;10.52;3.08;;;;;;;;;;4972879;28;20038;-63
2022/09/30 01:50:38;;;;;;;4.88;2.45;;;;;;;;;;4969188;28;20033;-63
2022/09/30 01:53:15;;;;;;;5.90;2.53;;;;;;;;;;4955038;28;20031;-63
2022/09/30 01:56:06;;;;;;;10.77;2.80;;;;;;;;;;4969658;28;20039;-63
2022/09/30 01:58:32;;;;;;;7.07;2.47;;;;;;;;;;4970906;28;20186;-64
2022/09/30 02:01:04;;;;;;;5.20;2.67;;;;;;;;;;4973728;28;20710;-63
2022/09/30 02:03:44;;;;;;;6.50;2.40;;;;;;;;;;4974060;28;20154;-63
2022/09/30 02:06:24;;;;;;;6.93;2.53;;;;;;;;;;4974022;28;20529;-64
2022/09/30 02:09:13;;;;;;;6.45;2.78;;;;;;;;;;4973949;28;20359;-63
2022/09/30 02:11:41;;;;;;;9.85;2.72;;;;;;;;;;4973807;28;20038;-62
2022/09/30 02:14:24;;;;;;;11.52;2.90;;;;;;;;;;4974307;28;20033;-63
2022/09/30 02:17:13;;;;;;;10.18;2.83;;;;;;;;;;4973827;28;20042;-63
2022/09/30 02:19:46;;;;;;;5.05;2.50;;;;;;;;;;4974054;28;20038;-62
2022/09/30 02:22:24;;;;;;;4.93;2.53;;;;;;;;;;4974097;28;20114;-61
2022/09/30 02:24:57;;;;;;;7.38;2.72;;;;;;;;;;4973895;28;20113;-63
2022/09/30 02:27:55;;;;;;;8.82;2.80;;;;;;;;;;4973957;28;20485;-63
2022/09/30 02:30:21;;;;;;;6.22;2.70;;;;;;;;;;4973752;28;20043;-62
2022/09/30 02:32:58;;;;;;;6.00;2.30;;;;;;;;;;4974019;28;20318;-63
2022/09/30 02:35:36;;;;;;;6.15;2.25;;;;;;;;;;4969524;28;20035;-66
2022/09/30 02:38:09;;;;;;;7.63;3.17;;;;;;;;;;4954001;28;20043;-62
2022/09/30 02:40:42;;;;;;;7.97;2.50;;;;;;;;;;4965796;28;20097;-62
2022/09/30 02:43:08;;;;;;;;;;;;;;;;;;4974093;28;20497;-62
2022/09/30 02:45:49;;;;;;;4.93;2.40;;;;;;;;;;4973660;28;19916;-62
2022/09/30 02:48:31;;;;;;;6.10;2.10;;;;;;;;;;4973171;28;20397;-62
2022/09/30 02:51:05;;;;;;;8.20;2.22;;;;;;;;;;4973495;28;20042;-62
2022/09/30 02:53:51;;;;;;;7.47;2.00;;;;;;;;;;4973040;28;20062;-65
2022/09/30 02:56:37;;;;;;;3.97;1.80;;;;;;;;;;4973113;28;20035;-62
2022/09/30 02:59:03;;;;;;;6.53;1.90;;;;;;;;;;4973210;28;20063;-62
2022/09/30 03:01:30;;;;;;;4.78;1.92;;;;;;;;;;4973284;28;20039;-63
2022/09/30 03:04:03;;;;;;;4.43;1.88;;;;;;;;;;4973180;28;20482;-63
2022/09/30 03:06:29;;;;;;;;;;;;;;;;;;4973693;28;20405;-60
2022/09/30 03:08:55;;;;;;;8.30;2.42;;;;;;;;;;4988596;28;19914;-61
2022/09/30 03:11:24;;;;;;;8.05;2.40;;;;;;;;;;4973256;28;20396;-61
2022/09/30 03:14:07;;;;;;;6.68;3.00;;;;;;;;;;4971831;28;20061;-60
2022/09/30 03:16:39;;;;;;;12.48;2.67;;;;;;;;;;4972022;28;20505;-62
2022/09/30 03:19:39;;;;;;;5.75;2.40;;;;;;;;;;4973009;28;20038;-63
2022/09/30 03:22:22;;;;;;;5.75;2.40;;;;;;;;;;4972712;28;20038;-62
2022/09/30 03:25:13;;;;;;;4.28;2.08;;;;;;;;;;4973048;28;20085;-62
2022/09/30 03:27:50;;;;;;;9.50;2.88;;;;;;;;;;4973015;28;20042;-61
2022/09/30 03:30:25;;;;;;;4.63;2.17;;;;;;;;;;4972982;28;20035;-62
2022/09/30 03:33:00;;;;;;;5.68;2.53;;;;;;;;;;4972696;28;20031;-62
2022/09/30 03:35:41;;;;;;;9.32;2.92;;;;;;;;;;4973078;28;20117;-62
2022/09/30 03:38:13;;;;;;;10.10;3.30;;;;;;;;;;4972649;28;20082;-62
2022/09/30 03:41:01;;;;;;;8.75;2.50;;;;;;;;;;4972213;28;20089;-61
2022/09/30 03:43:36;;;;;;;5.70;2.30;;;;;;;;;;4969539;28;20051;-62
2022/09/30 03:46:28;;;;;;;9.13;3.00;;;;;;;;;;4970795;28;20039;-61
2022/09/30 03:48:59;;;;;;;12.65;2.72;;;;;;;;;;4972634;28;20054;-61
2022/09/30 03:51:29;;;;;;;9.85;3.80;;;;;;;;;;4972841;28;20505;-62
2022/09/30 03:53:57;;;;;;;22.20;3.95;;;;;;;;;;4987538;28;20035;-62
2022/09/30 03:56:28;;;;;;;14.80;3.45;;;;;;;;;;4972898;28;20035;-62
2022/09/30 03:58:55;;;;;;;15.77;3.60;;;;;;;;;;4972784;28;20043;-61
2022/09/30 04:01:22;;;;;;;19.40;4.07;;;;;;;;;;4989786;28;20039;-62
2022/09/30 04:03:51;;;;;;;16.92;3.60;;;;;;;;;;4976136;28;20102;-61
2022/09/30 04:06:17;;;;;;;10.65;3.80;;;;;;;;;;4976211;28;20114;-62
2022/09/30 04:08:44;;;;;;;9.98;3.92;;;;;;;;;;4976245;28;20042;-62
2022/09/30 04:11:11;;;;;;;14.55;3.95;;;;;;;;;;4976064;28;20027;-62
2022/09/30 04:13:37;;;;;;;10.63;3.08;;;;;;;;;;4976098;28;20034;-62
2022/09/30 04:16:06;;;;;;;11.40;2.88;;;;;;;;;;4973466;28;20066;-62
2022/09/30 04:18:37;;;;;;;7.40;3.50;;;;;;;;;;4976045;28;20035;-61
2022/09/30 04:21:11;;;;;;;7.97;3.28;;;;;;;;;;4975905;28;20097;-61
2022/09/30 04:23:39;;;;;;;16.15;5.70;;;;;;;;;;4976154;28;20058;-62
2022/09/30 04:26:12;;;;;;;11.70;2.63;;;;;;;;;;4975713;28;20033;-63
2022/09/30 04:28:38;;;;;;;11.38;2.95;;;;;;;;;;4975682;28;20050;-61
2022/09/30 04:31:05;;;;;;;16.52;4.10;;;;;;;;;;4975652;28;20038;-62
2022/09/30 04:33:31;;;;;;;13.35;3.60;;;;;;;;;;4975336;28;20497;-62
2022/09/30 04:35:58;;;;;;;15.27;4.18;;;;;;;;;;4976250;28;20022;-64
2022/09/30 04:38:25;;;;;;;14.25;4.57;;;;;;;;;;4976236;28;20461;-62
2022/09/30 04:40:53;;;;;;;11.98;3.72;;;;;;;;;;4974187;28;20110;-63
2022/09/30 04:43:22;;;;;;;17.10;4.43;;;;;;;;;;4976601;28;20061;-61
2022/09/30 04:45:49;;;;;;;10.90;3.75;;;;;;;;;;4976606;28;20026;-62
2022/09/30 04:48:15;;;;;;;14.38;3.88;;;;;;;;;;4975006;28;20085;-61
2022/09/30 04:50:41;;;;;;;17.80;4.88;;;;;;;;;;4976124;28;20034;-61
2022/09/30 04:53:08;;;;;;;10.85;4.03;;;;;;;;;;4976216;28;20355;-62
2022/09/30 04:55:34;;;;;;;17.15;3.80;;;;;;;;;;4976370;28;20407;-62
2022/09/30 04:58:00;;;;;;;14.70;4.10;;;;;;;;;;4976366;28;20066;-61
2022/09/30 05:00:26;;;;;;;22.63;4.55;;;;;;;;;;4976438;28;20039;-63
2022/09/30 05:02:52;;;;;;;11.25;3.55;;;;;;;;;;4976160;28;20030;-61
2022/09/30 05:05:17;;;;;;;10.82;3.92;;;;;;;;;;4976297;28;20038;-62
2022/09/30 05:07:43;;;;;;;11.63;3.30;;;;;;;;;;4976017;28;20080;-62
2022/09/30 05:10:10;;;;;;;14.73;4.32;;;;;;;;;;4975806;28;20027;-63
2022/09/30 05:12:37;;;;;;;9.23;4.55;;;;;;;;;;4974513;28;20039;-63
2022/09/30 05:15:04;;;;;;;13.55;3.33;;;;;;;;;;4975718;28;20150;-62
2022/09/30 05:17:30;;;;;;;13.38;3.75;;;;;;;;;;4975445;28;20031;-62
2022/09/30 05:19:56;;;;;;;23.33;3.25;;;;;;;;;;4975502;28;20492;-63
2022/09/30 05:22:23;;;;;;;16.75;3.78;;;;;;;;;;4975580;28;20042;-61
2022/09/30 05:24:54;;;;;;;12.90;3.10;;;;;;;;;;4975682;28;20027;-62
2022/09/30 05:27:22;;;;;;;9.65;3.35;;;;;;;;;;4975547;28;20401;-63
2022/09/30 05:29:48;;;;;;;9.35;2.92;;;;;;;;;;4975272;28;20027;-62
2022/09/30 05:32:13;;;;;;;10.05;3.00;;;;;;;;;;4975372;28;20038;-61
2022/09/30 05:34:39;;;;;;;12.00;3.25;;;;;;;;;;4975250;28;20026;-62
2022/09/30 05:37:05;;;;;;;12.18;2.55;;;;;;;;;;4975406;28;20035;-62
2022/09/30 05:39:31;;;;;;;6.97;2.80;;;;;;;;;;4975335;28;20023;-62
2022/09/30 05:41:58;;;;;;;11.00;2.95;;;;;;;;;;4973359;28;20469;-63
2022/09/30 05:44:24;;;;;;;10.20;3.00;;;;;;;;;;4974782;28;20077;-62
2022/09/30 05:46:50;;;;;;;8.20;2.95;;;;;;;;;;4974639;28;20066;-63
2022/09/30 05:49:16;;;;;;;14.30;2.50;;;;;;;;;;4973705;28;20050;-63
2022/09/30 05:51:41;;;;;;;11.27;2.47;;;;;;;;;;4974526;28;20070;-64
2022/09/30 05:54:09;;;;;;;9.23;3.13;;;;;;;;;;4972255;28;20031;-64
2022/09/30 05:56:37;;;;;;;7.28;2.60;;;;;;;;;;4973953;28;20035;-62
2022/09/30 05:59:04;;;;;;;5.45;2.10;;;;;;;;;;4974565;28;20493;-62
2022/09/30 06:01:30;;;;;;;9.50;2.42;;;;;;;;;;4974452;28;20559;-63
2022/09/30 06:03:55;;;;;;;5.10;2.17;;;;;;;;;;4971959;28;20035;-63
2022/09/30 06:06:21;;;;;;;8.15;2.97;;;;;;;;;;4974276;28;20039;-64
2022/09/30 06:08:47;;;;;;;9.68;2.40;;;;;;;;;;4972127;28;20110;-62
2022/09/30 06:11:16;;;;;;;8.13;2.47;;;;;;;;;;4972851;28;20043;-62
2022/09/30 06:13:43;;;;;;;6.55;2.78;;;;;;;;;;4974700;28;20030;-69
2022/09/30 06:16:11;;;;;;;7.57;2.40;;;;;;;;;;4976419;28;20041;-73
2022/09/30 06:18:40;;;;;;;7.38;2.65;;;;;;;;;;4975161;28;20035;-66
2022/09/30 06:21:08;;;;;;;12.70;3.65;;;;;;;;;;4974021;28;20046;-69
2022/09/30 06:23:34;;;;;;;7.78;2.88;;;;;;;;;;4973941;28;20019;-68
2022/09/30 06:26:02;;;;;;;12.27;3.63;;;;;;;;;;4973921;28;20042;-67
2022/09/30 06:28:27;;;;;;;12.15;4.63;;;;;;;;;;4973952;28;20023;-69
2022/09/30 06:30:54;;;;;;;8.48;3.70;;;;;;;;;;4973539;28;20038;-68
2022/09/30 06:33:20;;;;;;;12.07;3.53;;;;;;;;;;4974360;28;20042;-68
2022/09/30 06:35:47;;;;;;;13.88;3.15;;;;;;;;;;4973780;28;20421;-68
2022/09/30 06:38:16;;;;;;;13.15;4.20;;;;;;;;;;4969378;28;20058;-68
2022/09/30 06:40:43;;;;;;;10.88;2.70;;;;;;;;;;4972186;28;20039;-69
2022/09/30 06:43:10;;;;;;;13.95;3.03;;;;;;;;;;4973864;28;20038;-68
2022/09/30 06:45:36;;;;;;;10.82;2.95;;;;;;;;;;4970949;28;20081;-70
2022/09/30 06:48:04;;;;;;;12.15;3.35;;;;;;;;;;4972145;28;20111;-67
2022/09/30 06:50:31;;;;;;;9.13;2.78;;;;;;;;;;4972765;28;20038;-68
2022/09/30 06:53:02;;;;;;;9.45;2.60;;;;;;;;;;4987945;28;20037;-67
2022/09/30 06:55:29;;;;;;;9.75;2.60;;;;;;;;;;4972556;28;20034;-68
2022/09/30 06:57:55;;;;;;;16.23;3.17;;;;;;;;;;4972874;28;20110;-66
2022/09/30 07:00:23;;;;;;;11.30;2.85;;;;;;;;;;4972161;28;20047;-68
2022/09/30 07:02:49;;;;;;;6.97;2.83;;;;;;;;;;4973191;28;20118;-69
2022/09/30 07:05:16;;;;;;;9.02;2.70;;;;;;;;;;4972892;28;20110;-72
2022/09/30 07:07:42;;;;;;;10.95;2.60;;;;;;;;;;4972491;28;20034;-70
2022/09/30 07:10:09;;;;;;;7.65;2.28;;;;;;;;;;4970525;28;20069;-68
2022/09/30 07:12:35;;;;;;;10.32;3.45;;;;;;;;;;4971874;28;20018;-70
2022/09/30 07:15:01;;;;;;;7.38;2.63;;;;;;;;;;4972010;28;20037;-69
2022/09/30 07:17:28;;;;;;;14.15;2.63;;;;;;;;;;4972002;28;20078;-68
2022/09/30 07:19:54;;;;;;;9.27;2.60;;;;;;;;;;4968364;28;20031;-69
2022/09/30 07:22:27;;;;;;;7.10;2.63;;;;;;;;;;4970303;28;20034;-70
2022/09/30 07:24:54;;;;;;;11.10;2.95;;;;;;;;;;4971568;28;20130;-67
2022/09/30 07:27:20;;;;;;;22.42;2.80;;;;;;;;;;4971996;28;20038;-67
2022/09/30 07:29:46;;;;;;;13.85;2.65;;;;;;;;;;4972757;28;20090;-70
2022/09/30 07:32:13;;;;;;;8.98;2.30;;;;;;;;;;4971565;28;20473;-67
2022/09/30 07:34:42;;;;;;;10.95;2.40;;;;;;;;;;4973427;28;20367;-67
2022/09/30 07:37:11;;;;;;;11.23;2.45;;;;;;;;;;4990050;28;20088;-66
2022/09/30 07:39:37;;;;;;;8.40;2.42;;;;;;;;;;4974427;28;20481;-66
2022/09/30 07:42:04;;;;;;;10.52;2.33;;;;;;;;;;4973258;28;20038;-67
2022/09/30 07:44:30;;;;;;;11.15;2.75;;;;;;;;;;4975966;28;20039;-69
2022/09/30 07:46:57;;;;;;;11.25;3.00;;;;;;;;;;4976011;28;20023;-69
2022/09/30 07:49:24;;;;;;;9.73;2.50;;;;;;;;;;4975131;28;20034;-67
2022/09/30 07:51:55;;;;;;;6.53;2.13;;;;;;;;;;4975569;28;20110;-70
2022/09/30 07:54:25;;;;;;;5.45;2.05;;;;;;;;;;4975841;28;20034;-71
2022/09/30 07:56:51;;;;;;;7.93;1.98;;;;;;;;;;4974816;28;20034;-68
2022/09/30 07:59:18;;;;;;;12.10;2.00;;;;;;;;;;4976090;28;20124;-68
2022/09/30 08:01:44;;;;;;;7.30;2.17;;;;;;;;;;4975004;28;20098;-68
2022/09/30 08:04:11;;;;;;;6.90;2.03;;;;;;;;;;4974062;28;20428;-68
2022/09/30 08:06:44;;;;;;;8.55;2.58;;;;;;;;;;4975617;28;20035;-69
2022/09/30 08:09:11;;;;;;;7.03;2.45;;;;;;;;;;4975503;28;20498;-69
2022/09/30 08:11:37;;;;;;;9.65;2.30;;;;;;;;;;4975833;28;20022;-67
2022/09/30 08:14:04;;;;;;;9.95;2.45;;;;;;;;;;4975630;28;20066;-67
2022/09/30 08:16:30;;;;;;;13.15;2.60;;;;;;;;;;4974262;28;20041;-67
2022/09/30 08:18:58;;;;;;;8.32;2.17;;;;;;;;;;4975341;28;20042;-67
2022/09/30 08:21:24;;;;;;;9.52;2.38;;;;;;;;;;4975768;28;20045;-66
2022/09/30 08:23:50;;;;;;;10.90;2.72;;;;;;;;;;4975166;28;20043;-67
2022/09/30 08:26:17;;;;;;;5.75;1.90;;;;;;;;;;4975015;28;20488;-67
2022/09/30 08:28:47;;;;;;;9.35;2.10;;;;;;;;;;4975075;28;20057;-67
2022/09/30 08:31:15;;;;;;;4.78;1.55;;;;;;;;;;4975332;28;20038;-70
2022/09/30 08:33:42;;;;;;;8.68;2.85;;;;;;;;;;4975420;28;20038;-67
2022/09/30 08:36:10;;;;;;;6.65;1.95;;;;;;;;;;4972329;28;20031;-69
2022/09/30 08:38:36;;;;;;;12.27;2.70;;;;;;;;;;4974593;28;20628;-68
2022/09/30 08:41:27;;;;;;;7.25;1.70;;;;;;;;;;4974916;28;20092;-67
2022/09/30 08:43:55;;;;;;;7.90;1.80;;;;;;;;;;4975224;28;20034;-67
2022/09/30 08:46:45;;;;;;;6.68;1.98;;;;;;;;;;4974296;28;20027;-68
2022/09/30 08:49:49;;;;;;;6.93;1.80;;;;;;;;;;4974856;28;20093;-68
2022/09/30 08:52:37;;;;;;;8.32;2.00;;;;;;;;;;4974673;28;20062;-67
2022/09/30 08:55:05;;;;;;;6.70;1.60;;;;;;;;;;4974826;28;20032;-73
2022/09/30 08:57:53;;;;;;;8.23;1.88;;;;;;;;;;4974963;28;20037;-68
2022/09/30 09:00:30;;;;;;;5.15;1.67;;;;;;;;;;4958489;28;20571;-68
2022/09/30 09:02:58;;;;;;;4.10;1.45;;;;;;;;;;4974541;28;20117;-67
2022/09/30 09:05:39;;;;;;;4.22;1.48;;;;;;;;;;4974788;28;20015;-70
2022/09/30 09:08:07;;;;;;;4.13;1.40;;;;;;;;;;4973784;28;20035;-73
2022/09/30 09:10:59;;;;;;;6.13;1.45;;;;;;;;;;4989339;28;20366;-68
2022/09/30 09:14:12;;;;;;;4.18;1.40;;;;;;;;;;4974668;28;20037;-68
2022/09/30 09:17:11;;;;;;;5.90;1.42;;;;;;;;;;4972062;28;20034;-67
2022/09/30 09:19:45;;;;;;;4.07;1.45;;;;;;;;;;4974400;28;20046;-69
2022/09/30 09:22:11;;;;;;;5.53;1.50;;;;;;;;;;4974111;28;20105;-69
2022/09/30 09:24:43;;;;;;;7.07;1.50;;;;;;;;;;4974511;28;20037;-66
2022/09/30 09:27:40;;;;;;;4.75;1.40;;;;;;;;;;4974169;28;20097;-67
2022/09/30 09:30:13;;;;;;;4.32;1.63;;;;;;;;;;4974250;28;20117;-67
2022/09/30 09:32:41;;;;;;;3.72;1.65;;;;;;;;;;4974012;28;20122;-66
2022/09/30 09:35:16;;;;;;;6.47;1.90;;;;;;;;;;4974584;28;20039;-68
2022/09/30 09:38:23;;;;;;;6.10;1.80;;;;;;;;;;4973479;28;20474;-66
2022/09/30 09:41:04;;;;;;;6.35;1.95;;;;;;;;;;4962839;28;20043;-66
2022/09/30 09:43:44;;;;;;;6.55;1.83;;;;;;;;;;4974854;28;20071;-69
2022/09/30 09:46:28;;;;;;;3.22;1.60;;;;;;;;;;4975652;28;20059;-70
2022/09/30 09:49:28;;;;;;;5.70;1.77;;;;;;;;;;4974891;28;20035;-68
2022/09/30 09:52:12;;;;;;;8.15;2.45;;;;;;;;;;4931938;28;20166;-66
2022/09/30 09:54:44;;;;;;;4.97;2.38;;;;;;;;;;4974024;28;20366;-66
2022/09/30 09:57:13;;;;;;;6.30;1.95;;;;;;;;;;4972721;28;20080;-66
2022/09/30 10:00:39;;;;;;;4.82;1.63;;;;;;;;;;4973586;28;20053;-74
2022/09/30 10:03:02;;;;;;;5.07;2.15;;;;;;;;;;4973821;28;20039;-69
2022/09/30 10:05:30;;;;;;;;;;;;;;;;;;4974486;28;20382;-67
2022/09/30 10:08:30;;;;;;;7.07;1.80;;;;;;;;;;4973415;28;20373;-69
2022/09/30 10:11:02;;;;;;;4.45;1.80;;;;;;;;;;4940971;28;20209;-68
2022/09/30 10:13:37;;;;;;;7.55;1.98;;;;;;;;;;4972405;28;20113;-67
2022/09/30 10:16:03;;;;;;;3.72;1.60;;;;;;;;;;4968058;28;20470;-67
2022/09/30 10:18:36;;;;;;;3.72;1.80;;;;;;;;;;4961194;28;20030;-68
2022/09/30 10:21:22;;;;;;;5.38;1.67;;;;;;;;;;4967900;28;20537;-71
2022/09/30 10:23:48;;;;;;;4.28;1.80;;;;;;;;;;4967049;28;20389;-66
2022/09/30 10:26:18;;;;;;;5.57;1.63;;;;;;;;;;4972352;28;20027;-69
2022/09/30 10:28:57;;;;;;;6.53;1.80;;;;;;;;;;4970922;28;20038;-67
2022/09/30 10:31:40;;;;;;;2.97;2.35;;;;;;;;;;4972181;28;20122;-69
2022/09/30 10:34:18;;;;;;;5.38;2.00;;;;;;;;;;4967445;28;20069;-67
2022/09/30 10:36:45;;;;;;;9.02;4.28;;;;;;;;;;4971560;28;20035;-66
2022/09/30 10:39:28;;;;;;;4.75;2.25;;;;;;;;;;4982230;28;20041;-70
2022/09/30 10:42:08;;;;;;;12.70;3.75;;;;;;;;;;4972819;28;20042;-71
2022/09/30 10:44:42;;;;;;;7.65;2.42;;;;;;;;;;4987277;28;20070;-68
2022/09/30 10:47:15;;;;;;;8.10;2.30;;;;;;;;;;4965797;28;20030;-68
2022/09/30 10:49:47;;;;;;;6.05;2.50;;;;;;;;;;4971004;28;20043;-67
2022/09/30 10:52:32;;;;;;;7.60;3.00;;;;;;;;;;4971928;28;20062;-66
2022/09/30 10:54:59;;;;;;;7.13;3.88;;;;;;;;;;4972693;28;20374;-69
2022/09/30 10:57:32;;;;;;;5.88;1.95;;;;;;;;;;4972744;28;20058;-67
2022/09/30 11:00:05;;;;;;;6.47;1.92;;;;;;;;;;4972376;28;20741;-68
2022/09/30 11:02:46;;;;;;;5.88;2.10;;;;;;;;;;4971517;28;20101;-70
2022/09/30 11:05:18;;;;;;;8.13;3.13;;;;;;;;;;4970975;28;20041;-71
2022/09/30 11:07:47;;;;;;;7.95;2.88;;;;;;;;;;4970918;28;20627;-67
2022/09/30 11:10:35;;;;;;;4.85;2.63;;;;;;;;;;4972976;28;20026;-71
2022/09/30 11:13:20;;;;;;;6.57;2.60;;;;;;;;;;4972426;28;20086;-71
2022/09/30 11:16:02;;;;;;;12.73;2.90;;;;;;;;;;4972126;28;20037;-67
2022/09/30 11:18:51;;;;;;;4.85;2.35;;;;;;;;;;4972564;28;20058;-66
2022/09/30 11:21:25;;;;;;;4.30;2.85;;;;;;;;;;4972374;28;20031;-68
2022/09/30 11:24:12;;;;;;;7.00;3.67;;;;;;;;;;4972892;28;20062;-68
2022/09/30 11:27:01;;;;;;;4.78;2.15;;;;;;;;;;4972568;28;20055;-66
2022/09/30 11:29:36;;;;;;;5.47;2.72;;;;;;;;;;4967465;28;20031;-68
2022/09/30 11:32:39;;;;;;;8.00;2.72;;;;;;;;;;4953192;29;20144;-66
2022/09/30 11:35:18;;;;;;;5.95;2.80;;;;;;;;;;4966169;28;20046;-70
2022/09/30 11:38:04;;;;;;;4.97;2.63;;;;;;;;;;4972350;28;20105;-71
2022/09/30 11:40:48;;;;;;;4.68;2.60;;;;;;;;;;4986991;28;20142;-69
2022/09/30 11:43:36;;;;;;;3.80;2.50;;;;;;;;;;4971905;28;20134;-68
2022/09/30 11:46:02;;;;;;;6.13;2.80;;;;;;;;;;4973015;28;20067;-68
2022/09/30 11:48:52;;;;;;;3.70;2.45;;;;;;;;;;4972442;28;20505;-67
2022/09/30 11:52:05;;;;;;;4.80;2.40;;;;;;;;;;4972042;28;20042;-70
2022/09/30 11:54:49;;;;;;;5.03;2.78;;;;;;;;;;4965791;28;20043;-68
2022/09/30 11:57:30;;;;;;;11.35;2.80;;;;;;;;;;4971818;28;20034;-67
2022/09/30 12:00:02;;;;;;;5.07;2.75;;;;;;;;;;4972356;28;20035;-67
2022/09/30 12:02:57;;;;;;;7.07;2.58;;;;;;;;;;4972576;28;20051;-69
2022/09/30 12:05:32;;;;;;;5.90;3.00;;;;;;;;;;4971015;28;20362;-68
2022/09/30 12:08:01;;;;;;;5.18;2.65;;;;;;;;;;4972296;28;20035;-72
2022/09/30 12:10:36;;;;;;;4.72;3.15;;;;;;;;;;4970712;28;20034;-68
2022/09/30 12:13:11;;;;;;;4.68;2.60;;;;;;;;;;4970123;28;20034;-68
2022/09/30 12:15:39;;;;;;;4.05;2.28;;;;;;;;;;4970857;28;20291;-68
2022/09/30 12:18:14;;;;;;;4.75;2.55;;;;;;;;;;4970756;28;20038;-67
2022/09/30 12:20:46;;;;;;;5.63;2.40;;;;;;;;;;4970970;28;20038;-69
2022/09/30 12:23:20;;;;;;;5.20;2.47;;;;;;;;;;4974380;28;20059;-68
2022/09/30 12:26:10;;;;;;;6.80;2.53;;;;;;;;;;4975556;28;20415;-71
2022/09/30 12:31:41;;;;;;;5.32;2.47;;;;;;;;;;4976306;28;20035;-71
2022/09/30 12:34:07;;;;;;;7.83;2.40;;;;;;;;;;4975932;28;20050;-72
2022/09/30 12:37:04;;;;;;;4.38;2.40;;;;;;;;;;4975885;28;20042;-69
2022/09/30 12:39:50;;;;;;;5.22;2.28;;;;;;;;;;4976065;28;20038;-71
2022/09/30 12:42:32;;;;;;;4.30;2.60;;;;;;;;;;4973677;28;20043;-74
2022/09/30 12:45:26;;;;;;;5.15;2.40;;;;;;;;;;4975446;28;20039;-71
2022/09/30 12:47:56;;;;;;;3.67;2.28;;;;;;;;;;4975704;28;20039;-72
2022/09/30 12:50:27;;;;;;;4.25;2.10;;;;;;;;;;4974112;28;20062;-70
2022/09/30 12:52:56;;;;;;;5.88;2.35;;;;;;;;;;4974852;28;20035;-71
2022/09/30 12:55:30;;;;;;;5.70;2.10;;;;;;;;;;4975740;28;20478;-70
2022/09/30 12:58:00;;;;;;;5.00;2.17;;;;;;;;;;4989950;28;20042;-69
2022/09/30 13:00:33;;;;;;;3.15;2.05;;;;;;;;;;4975212;28;20188;-74
2022/09/30 13:03:18;;;;;;;4.18;2.45;;;;;;;;;;4975316;28;20035;-71
2022/09/30 13:06:05;;;;;;;5.22;2.08;;;;;;;;;;4974806;28;20035;-70
2022/09/30 13:08:42;;;;;;;7.97;2.65;;;;;;;;;;4975357;28;20042;-72
2022/09/30 13:11:30;;;;;;;2.70;1.75;;;;;;;;;;4975180;28;20042;-67
2022/09/30 13:14:02;;;;;;;5.13;2.00;;;;;;;;;;4975339;28;20037;-69
2022/09/30 13:17:16;;;;;;;3.75;1.75;;;;;;;;;;4975281;28;20122;-75
2022/09/30 13:19:50;;;;;;;4.82;2.30;;;;;;;;;;4943684;28;20145;-70
2022/09/30 13:22:19;;;;;;;4.70;2.10;;;;;;;;;;4955572;29;20036;-71
2022/09/30 13:25:01;;;;;;;5.25;2.20;;;;;;;;;;4955562;28;20423;-70
2022/09/30 13:27:34;;;;;;;5.40;2.40;;;;;;;;;;4954619;29;20110;-69
2022/09/30 13:30:02;;;;;;;3.22;1.92;;;;;;;;;;4960981;28;20065;-68
2022/09/30 13:32:36;;;;;;;3.08;1.65;;;;;;;;;;4973410;28;20030;-71
2022/09/30 13:35:36;;;;;;;5.35;2.13;;;;;;;;;;4974010;28;20031;-68
2022/09/30 13:38:11;;;;;;;2.90;1.67;;;;;;;;;;4972859;28;20054;-69
2022/09/30 13:40:59;;;;;;;4.63;2.15;;;;;;;;;;4974035;28;20490;-71
2022/09/30 13:43:35;;;;;;;5.70;1.90;;;;;;;;;;4973346;28;20034;-69
2022/09/30 13:46:11;;;;;;;3.63;1.85;;;;;;;;;;4974030;28;20054;-68
2022/09/30 13:48:42;;;;;;;5.05;1.90;;;;;;;;;;4973418;28;20043;-71
2022/09/30 13:51:13;;;;;;;4.72;1.73;;;;;;;;;;4974266;28;20145;-69
2022/09/30 13:53:44;;;;;;;6.20;2.00;;;;;;;;;;4973935;28;20601;-70
2022/09/30 13:56:25;;;;;;;8.05;2.03;;;;;;;;;;4973215;28;20042;-69
2022/09/30 13:59:06;;;;;;;2.97;1.80;;;;;;;;;;4974220;28;20034;-69
2022/09/30 14:01:50;;;;;;;2.30;1.50;;;;;;;;;;4973540;28;20039;-69
2022/09/30 14:04:25;;;;;;;5.28;2.05;;;;;;;;;;4973430;28;20035;-68
2022/09/30 14:07:03;;;;;;;4.00;1.63;;;;;;;;;;4973310;28;20042;-67
2022/09/30 14:09:47;;;;;;;4.07;1.63;;;;;;;;;;4973199;28;20114;-66
2022/09/30 14:12:22;;;;;;;7.22;1.73;;;;;;;;;;4973744;28;20053;-68
2022/09/30 14:15:21;;;;;;;3.83;1.85;;;;;;;;;;4961618;28;20039;-69
2022/09/30 14:18:08;;;;;;;3.28;1.70;;;;;;;;;;4953809;28;20034;-69
2022/09/30 14:21:12;;;;;;;3.25;1.92;;;;;;;;;;4953351;28;20453;-69
2022/09/30 14:23:38;;;;;;;3.72;2.20;;;;;;;;;;4954476;28;20036;-69
2022/09/30 14:26:18;;;;;;;4.03;1.80;;;;;;;;;;4954361;29;20494;-69
2022/09/30 14:28:58;;;;;;;3.80;1.80;;;;;;;;;;4954822;29;20441;-69
2022/09/30 14:31:24;;;;;;;4.60;1.83;;;;;;;;;;4954537;29;20035;-69
2022/09/30 14:33:51;;;;;;;2.78;1.65;;;;;;;;;;4953058;29;20032;-70
2022/09/30 14:36:20;;;;;;;6.10;2.17;;;;;;;;;;4962936;28;20433;-68
2022/09/30 14:38:52;;;;;;;3.10;1.90;;;;;;;;;;4956194;28;20036;-68
2022/09/30 14:41:22;;;;;;;4.70;1.90;;;;;;;;;;4953939;28;20035;-67
2022/09/30 14:43:53;;;;;;;6.13;2.30;;;;;;;;;;4954089;28;20032;-67
2022/09/30 14:46:42;;;;;;;5.38;2.05;;;;;;;;;;4969222;28;20039;-71
2022/09/30 14:49:13;;;;;;;5.00;1.70;;;;;;;;;;4954538;28;20414;-71
2022/09/30 14:51:43;;;;;;;5.32;1.77;;;;;;;;;;4961384;28;20038;-70
2022/09/30 14:54:25;;;;;;;5.22;2.20;;;;;;;;;;4972743;28;20070;-68
2022/09/30 14:56:54;;;;;;;4.45;1.60;;;;;;;;;;4986814;28;20039;-67
2022/09/30 14:59:26;;;;;;;5.68;1.88;;;;;;;;;;4972805;28;20026;-67
2022/09/30 15:02:02;;;;;;;5.47;1.77;;;;;;;;;;4971812;28;20057;-69
2022/09/30 15:04:38;;;;;;;6.03;1.80;;;;;;;;;;4971783;28;20054;-66
2022/09/30 15:07:10;;;;;;;7.10;1.63;;;;;;;;;;4972526;28;20153;-69
2022/09/30 15:09:44;;;;;;;6.15;1.73;;;;;;;;;;4972668;28;20126;-68
2022/09/30 15:12:21;;;;;;;7.95;2.03;;;;;;;;;;4972048;28;20035;-67
2022/09/30 15:14:55;;;;;;;4.72;1.80;;;;;;;;;;4972820;28;20034;-67
2022/09/30 15:17:34;;;;;;;3.97;1.60;;;;;;;;;;4973067;28;20046;-69
2022/09/30 15:20:00;;;;;;;5.13;1.80;;;;;;;;;;4973012;28;20188;-69
2022/09/30 15:22:29;;;;;;;10.07;1.83;;;;;;;;;;4973285;28;20027;-67
2022/09/30 15:24:57;;;;;;;8.18;1.95;;;;;;;;;;4972815;28;20046;-66
2022/09/30 15:27:26;;;;;;;9.88;1.52;;;;;;;;;;4973255;28;20465;-66